sensor_id;sensor_type;location;lat;lon;timestamp;pressure;altitude;pressure_sealevel;temperature;humidity
40315;BME280;26021;45.640;11.302;2023-01-28T00:02:15;98708.34;;;1.57;100.00
40315;BME280;26021;45.640;11.302;2023-01-28T00:04:40;98707.38;;;1.58;100.00
40315;BME280;26021;45.640;11.302;2023-01-28T00:07:07;98711.59;;;1.49;100.00
40315;BME280;26021;45.640;11.302;2023-01-28T00:09:33;98709.97;;;1.69;100.00
40315;BME280;26021;45.640;11.302;2023-01-28T00:11:58;98665.72;;;1.30;100.00
40315;BME280;26021;45.640;11.302;2023-01-28T00:14:23;98652.44;;;1.20;100.00
40315;BME280;26021;45.640;11.302;2023-01-28T00:16:49;98719.00;;;1.55;100.00
40315;BME280;26021;45.640;11.302;2023-01-28T00:19:14;98716.13;;;1.47;100.00
40315;BME280;26021;45.640;11.302;2023-01-28T00:21:40;98713.00;;;1.42;100.00
40315;BME280;26021;45.640;11.302;2023-01-28T00:24:06;98658.66;;;1.30;100.00
40315;BME280;26021;45.640;11.302;2023-01-28T00:26:34;98717.81;;;1.91;100.00
40315;BME280;26021;45.640;11.302;2023-01-28T00:28:59;98718.13;;;1.98;100.00
40315;BME280;26021;45.640;11.302;2023-01-28T00:31:25;98697.78;;;1.57;100.00
40315;BME280;26021;45.640;11.302;2023-01-28T00:33:52;98723.41;;;1.66;100.00
40315;BME280;26021;45.640;11.302;2023-01-28T00:36:20;98717.88;;;1.69;100.00
40315;BME280;26021;45.640;11.302;2023-01-28T00:38:56;98539.44;;;0.51;100.00
40315;BME280;26021;45.640;11.302;2023-01-28T00:41:25;98728.91;;;1.74;100.00
40315;BME280;26021;45.640;11.302;2023-01-28T00:43:52;98721.69;;;1.76;100.00
40315;BME280;26021;45.640;11.302;2023-01-28T00:46:18;98716.47;;;1.65;100.00
40315;BME280;26021;45.640;11.302;2023-01-28T00:48:45;98716.28;;;1.78;100.00
40315;BME280;26021;45.640;11.302;2023-01-28T00:51:12;98711.41;;;2.05;100.00
40315;BME280;26021;45.640;11.302;2023-01-28T00:53:38;98707.94;;;1.73;100.00
40315;BME280;26021;45.640;11.302;2023-01-28T00:56:05;98709.72;;;1.72;100.00
40315;BME280;26021;45.640;11.302;2023-01-28T00:58:32;98713.66;;;1.78;100.00
40315;BME280;26021;45.640;11.302;2023-01-28T01:01:12;98712.97;;;1.65;100.00
40315;BME280;26021;45.640;11.302;2023-01-28T01:03:39;98631.78;;;1.04;100.00
40315;BME280;26021;45.640;11.302;2023-01-28T01:06:05;98695.78;;;1.49;100.00
40315;BME280;26021;45.640;11.302;2023-01-28T01:08:31;98698.41;;;1.49;100.00
40315;BME280;26021;45.640;11.302;2023-01-28T01:11:03;98720.91;;;1.97;100.00
40315;BME280;26021;45.640;11.302;2023-01-28T01:13:29;98655.28;;;1.39;100.00
40315;BME280;26021;45.640;11.302;2023-01-28T01:16:05;98709.72;;;1.72;100.00
40315;BME280;26021;45.640;11.302;2023-01-28T01:18:32;98720.56;;;1.90;100.00
40315;BME280;26021;45.640;11.302;2023-01-28T01:20:59;98713.59;;;1.57;100.00
40315;BME280;26021;45.640;11.302;2023-01-28T01:23:26;98722.22;;;1.59;100.00
40315;BME280;26021;45.640;11.302;2023-01-28T01:25:52;98668.38;;;1.18;100.00
40315;BME280;26021;45.640;11.302;2023-01-28T01:28:18;98729.59;;;1.76;100.00
40315;BME280;26021;45.640;11.302;2023-01-28T01:30:45;98733.81;;;1.68;100.00
40315;BME280;26021;45.640;11.302;2023-01-28T01:33:11;98731.22;;;1.56;100.00
40315;BME280;26021;45.640;11.302;2023-01-28T01:35:36;98717.53;;;1.63;100.00
40315;BME280;26021;45.640;11.302;2023-01-28T01:38:02;98723.16;;;1.69;100.00
40315;BME280;26021;45.640;11.302;2023-01-28T01:40:29;98558.56;;;0.64;100.00
40315;BME280;26021;45.640;11.302;2023-01-28T01:42:55;98657.94;;;1.28;100.00
40315;BME280;26021;45.640;11.302;2023-01-28T01:45:20;98735.53;;;1.57;100.00
40315;BME280;26021;45.640;11.302;2023-01-28T01:47:57;98725.09;;;1.67;100.00
40315;BME280;26021;45.640;11.302;2023-01-28T01:50:33;98736.94;;;1.73;100.00
40315;BME280;26021;45.640;11.302;2023-01-28T01:53:05;98729.97;;;1.72;100.00
40315;BME280;26021;45.640;11.302;2023-01-28T01:55:34;98722.56;;;1.66;100.00
40315;BME280;26021;45.640;11.302;2023-01-28T01:58:05;98729.88;;;1.62;100.00
40315;BME280;26021;45.640;11.302;2023-01-28T02:00:31;98738.94;;;1.80;100.00
40315;BME280;26021;45.640;11.302;2023-01-28T02:02:56;98739.88;;;1.90;100.00
40315;BME280;26021;45.640;11.302;2023-01-28T02:05:23;98693.09;;;1.61;100.00
40315;BME280;26021;45.640;11.302;2023-01-28T02:07:51;98732.09;;;1.89;100.00
40315;BME280;26021;45.640;11.302;2023-01-28T02:10:20;98737.72;;;1.84;100.00
40315;BME280;26021;45.640;11.302;2023-01-28T02:12:52;98630.03;;;1.25;100.00
40315;BME280;26021;45.640;11.302;2023-01-28T02:15:20;98730.06;;;1.81;100.00
40315;BME280;26021;45.640;11.302;2023-01-28T02:17:48;98731.25;;;1.88;100.00
40315;BME280;26021;45.640;11.302;2023-01-28T02:20:21;98667.25;;;1.43;100.00
40315;BME280;26021;45.640;11.302;2023-01-28T02:30:40;98708.00;;;1.82;100.00
40315;BME280;26021;45.640;11.302;2023-01-28T02:33:34;98715.25;;;1.69;100.00
40315;BME280;26021;45.640;11.302;2023-01-28T02:38:47;98700.91;;;1.51;100.00
40315;BME280;26021;45.640;11.302;2023-01-28T02:41:33;98691.69;;;1.45;100.00
40315;BME280;26021;45.640;11.302;2023-01-28T02:44:02;98674.69;;;1.49;100.00
40315;BME280;26021;45.640;11.302;2023-01-28T02:49:27;98686.06;;;1.39;100.00
40315;BME280;26021;45.640;11.302;2023-01-28T02:58:02;98674.13;;;1.23;100.00
40315;BME280;26021;45.640;11.302;2023-01-28T03:00:43;98655.91;;;1.20;100.00
40315;BME280;26021;45.640;11.302;2023-01-28T03:03:36;98570.75;;;0.66;100.00
40315;BME280;26021;45.640;11.302;2023-01-28T03:06:10;98668.47;;;1.28;100.00
40315;BME280;26021;45.640;11.302;2023-01-28T03:08:45;98680.72;;;1.18;100.00
40315;BME280;26021;45.640;11.302;2023-01-28T03:11:33;98682.41;;;1.08;100.00
40315;BME280;26021;45.640;11.302;2023-01-28T03:14:19;98643.63;;;0.99;100.00
40315;BME280;26021;45.640;11.302;2023-01-28T03:17:07;98684.56;;;1.14;100.00
40315;BME280;26021;45.640;11.302;2023-01-28T03:19:54;98688.38;;;1.10;100.00
40315;BME280;26021;45.640;11.302;2023-01-28T03:22:41;98591.34;;;0.38;100.00
40315;BME280;26021;45.640;11.302;2023-01-28T03:25:28;98677.56;;;1.35;100.00
40315;BME280;26021;45.640;11.302;2023-01-28T03:28:16;98674.13;;;1.12;100.00
40315;BME280;26021;45.640;11.302;2023-01-28T03:31:09;98686.25;;;1.04;100.00
40315;BME280;26021;45.640;11.302;2023-01-28T03:33:54;98689.47;;;0.85;100.00
40315;BME280;26021;45.640;11.302;2023-01-28T03:36:38;98661.25;;;0.76;100.00
40315;BME280;26021;45.640;11.302;2023-01-28T03:39:21;98692.94;;;1.19;100.00
40315;BME280;26021;45.640;11.302;2023-01-28T03:44:27;98510.06;;;0.02;100.00
40315;BME280;26021;45.640;11.302;2023-01-28T03:47:12;98703.72;;;1.05;100.00
40315;BME280;26021;45.640;11.302;2023-01-28T03:49:45;98653.66;;;0.71;100.00
40315;BME280;26021;45.640;11.302;2023-01-28T03:52:14;98694.25;;;0.91;100.00
40315;BME280;26021;45.640;11.302;2023-01-28T03:54:40;98715.22;;;1.04;100.00
40315;BME280;26021;45.640;11.302;2023-01-28T03:57:06;98710.53;;;0.96;100.00
40315;BME280;26021;45.640;11.302;2023-01-28T03:59:32;98711.75;;;0.92;100.00
40315;BME280;26021;45.640;11.302;2023-01-28T04:01:58;98669.13;;;0.76;100.00
40315;BME280;26021;45.640;11.302;2023-01-28T04:04:23;98653.66;;;0.71;100.00
40315;BME280;26021;45.640;11.302;2023-01-28T04:06:53;98704.91;;;0.89;100.00
40315;BME280;26021;45.640;11.302;2023-01-28T04:09:21;98729.44;;;1.12;100.00
40315;BME280;26021;45.640;11.302;2023-01-28T04:11:47;98733.75;;;0.80;100.00
40315;BME280;26021;45.640;11.302;2023-01-28T04:14:13;98667.19;;;0.55;100.00
40315;BME280;26021;45.640;11.302;2023-01-28T04:16:40;98699.28;;;0.83;100.00
40315;BME280;26021;45.640;11.302;2023-01-28T04:19:07;98731.34;;;0.77;100.00
40315;BME280;26021;45.640;11.302;2023-01-28T04:21:32;98741.53;;;0.81;100.00
40315;BME280;26021;45.640;11.302;2023-01-28T04:23:58;98732.69;;;0.82;100.00
40315;BME280;26021;45.640;11.302;2023-01-28T04:26:23;98737.47;;;0.88;100.00
40315;BME280;26021;45.640;11.302;2023-01-28T04:28:49;98747.03;;;0.89;100.00
40315;BME280;26021;45.640;11.302;2023-01-28T04:31:14;98710.66;;;0.83;100.00
40315;BME280;26021;45.640;11.302;2023-01-28T04:33:40;98661.03;;;0.21;100.00
40315;BME280;26021;45.640;11.302;2023-01-28T04:36:05;98690.75;;;0.46;100.00
40315;BME280;26021;45.640;11.302;2023-01-28T04:38:31;98753.28;;;1.00;100.00
40315;BME280;26021;45.640;11.302;2023-01-28T04:40:56;98757.00;;;0.97;100.00
40315;BME280;26021;45.640;11.302;2023-01-28T04:43:22;98759.91;;;0.70;100.00
40315;BME280;26021;45.640;11.302;2023-01-28T04:45:48;98771.28;;;0.71;100.00
40315;BME280;26021;45.640;11.302;2023-01-28T04:48:14;98767.22;;;0.67;100.00
40315;BME280;26021;45.640;11.302;2023-01-28T04:50:40;98782.13;;;0.90;100.00
40315;BME280;26021;45.640;11.302;2023-01-28T04:53:06;98783.28;;;0.75;100.00
40315;BME280;26021;45.640;11.302;2023-01-28T04:55:32;98783.34;;;0.62;100.00
40315;BME280;26021;45.640;11.302;2023-01-28T04:57:57;98786.34;;;0.57;100.00
40315;BME280;26021;45.640;11.302;2023-01-28T05:00:23;98759.00;;;0.36;100.00
40315;BME280;26021;45.640;11.302;2023-01-28T05:02:48;98790.63;;;0.58;100.00
40315;BME280;26021;45.640;11.302;2023-01-28T05:05:14;98729.13;;;0.02;100.00
40315;BME280;26021;45.640;11.302;2023-01-28T05:07:39;98802.16;;;0.69;100.00
40315;BME280;26021;45.640;11.302;2023-01-28T05:10:05;98807.41;;;0.69;100.00
40315;BME280;26021;45.640;11.302;2023-01-28T05:12:31;98803.88;;;0.81;100.00
40315;BME280;26021;45.640;11.302;2023-01-28T05:14:58;98804.06;;;0.67;100.00
40315;BME280;26021;45.640;11.302;2023-01-28T05:17:25;98808.69;;;0.52;100.00
40315;BME280;26021;45.640;11.302;2023-01-28T05:19:51;98811.13;;;0.66;100.00
40315;BME280;26021;45.640;11.302;2023-01-28T05:22:16;98813.72;;;0.55;100.00
40315;BME280;26021;45.640;11.302;2023-01-28T05:24:42;98802.09;;;0.46;100.00
40315;BME280;26021;45.640;11.302;2023-01-28T05:27:07;98820.19;;;0.62;100.00
40315;BME280;26021;45.640;11.302;2023-01-28T05:29:33;98821.81;;;0.41;100.00
40315;BME280;26021;45.640;11.302;2023-01-28T05:31:58;98822.91;;;0.49;100.00
40315;BME280;26021;45.640;11.302;2023-01-28T05:34:24;98827.41;;;0.36;100.00
40315;BME280;26021;45.640;11.302;2023-01-28T05:36:49;98817.53;;;0.51;100.00
40315;BME280;26021;45.640;11.302;2023-01-28T05:39:15;98815.25;;;0.46;100.00
40315;BME280;26021;45.640;11.302;2023-01-28T05:41:40;98842.56;;;0.56;100.00
40315;BME280;26021;45.640;11.302;2023-01-28T05:44:06;98830.66;;;0.40;100.00
40315;BME280;26021;45.640;11.302;2023-01-28T05:46:31;98845.38;;;0.18;100.00
40315;BME280;26021;45.640;11.302;2023-01-28T05:48:56;98778.81;;;-0.19;100.00
40315;BME280;26021;45.640;11.302;2023-01-28T05:51:22;98837.72;;;0.39;100.00
40315;BME280;26021;45.640;11.302;2023-01-28T05:53:47;98819.59;;;0.23;100.00
40315;BME280;26021;45.640;11.302;2023-01-28T05:56:13;98845.41;;;0.53;100.00
40315;BME280;26021;45.640;11.302;2023-01-28T05:58:38;98638.84;;;-0.81;100.00
40315;BME280;26021;45.640;11.302;2023-01-28T06:01:04;98843.25;;;0.23;100.00
40315;BME280;26021;45.640;11.302;2023-01-28T06:03:29;98851.88;;;0.25;100.00
40315;BME280;26021;45.640;11.302;2023-01-28T06:05:54;98856.00;;;0.17;100.00
40315;BME280;26021;45.640;11.302;2023-01-28T06:08:20;98809.41;;;-0.18;100.00
40315;BME280;26021;45.640;11.302;2023-01-28T06:10:45;98864.53;;;0.20;100.00
40315;BME280;26021;45.640;11.302;2023-01-28T06:13:11;98861.56;;;0.25;100.00
40315;BME280;26021;45.640;11.302;2023-01-28T06:15:36;98859.53;;;0.28;100.00
40315;BME280;26021;45.640;11.302;2023-01-28T06:18:02;98829.78;;;0.04;100.00
40315;BME280;26021;45.640;11.302;2023-01-28T06:20:28;98650.97;;;-0.91;100.00
40315;BME280;26021;45.640;11.302;2023-01-28T06:22:53;98776.47;;;-0.35;100.00
40315;BME280;26021;45.640;11.302;2023-01-28T06:25:19;98859.53;;;0.28;100.00
40315;BME280;26021;45.640;11.302;2023-01-28T06:27:44;98857.59;;;0.19;100.00
40315;BME280;26021;45.640;11.302;2023-01-28T06:30:11;98866.19;;;0.21;100.00
40315;BME280;26021;45.640;11.302;2023-01-28T06:32:36;98784.97;;;-0.07;100.00
40315;BME280;26021;45.640;11.302;2023-01-28T06:35:02;98870.63;;;0.21;100.00
40315;BME280;26021;45.640;11.302;2023-01-28T06:37:28;98845.66;;;0.26;100.00
40315;BME280;26021;45.640;11.302;2023-01-28T06:39:53;98848.97;;;0.17;100.00
40315;BME280;26021;45.640;11.302;2023-01-28T06:42:18;98840.06;;;0.31;100.00
40315;BME280;26021;45.640;11.302;2023-01-28T06:44:44;98848.22;;;0.39;100.00
40315;BME280;26021;45.640;11.302;2023-01-28T06:47:09;98872.03;;;0.38;100.00
40315;BME280;26021;45.640;11.302;2023-01-28T06:49:36;98878.97;;;0.39;100.00
40315;BME280;26021;45.640;11.302;2023-01-28T06:52:02;98821.50;;;-0.15;100.00
40315;BME280;26021;45.640;11.302;2023-01-28T06:54:28;98851.94;;;0.13;100.00
40315;BME280;26021;45.640;11.302;2023-01-28T06:56:54;98814.22;;;-0.36;100.00
40315;BME280;26021;45.640;11.302;2023-01-28T06:59:19;98888.31;;;0.19;100.00
40315;BME280;26021;45.640;11.302;2023-01-28T07:01:45;98809.31;;;-0.16;100.00
40315;BME280;26021;45.640;11.302;2023-01-28T07:04:10;98886.69;;;0.29;100.00
40315;BME280;26021;45.640;11.302;2023-01-28T07:06:36;98881.09;;;0.34;100.00
40315;BME280;26021;45.640;11.302;2023-01-28T07:09:01;98885.78;;;0.41;100.00
40315;BME280;26021;45.640;11.302;2023-01-28T07:11:26;98870.84;;;0.18;100.00
40315;BME280;26021;45.640;11.302;2023-01-28T07:13:52;98796.91;;;-0.14;100.00
40315;BME280;26021;45.640;11.302;2023-01-28T07:16:17;98890.38;;;0.50;100.00
40315;BME280;26021;45.640;11.302;2023-01-28T07:18:43;98889.44;;;0.27;100.00
40315;BME280;26021;45.640;11.302;2023-01-28T07:21:09;98873.13;;;0.22;100.00
40315;BME280;26021;45.640;11.302;2023-01-28T07:23:35;98850.59;;;0.31;100.00
40315;BME280;26021;45.640;11.302;2023-01-28T07:26:03;98882.25;;;0.53;100.00
40315;BME280;26021;45.640;11.302;2023-01-28T07:28:29;98691.09;;;-0.53;100.00
40315;BME280;26021;45.640;11.302;2023-01-28T07:30:55;98827.34;;;0.25;100.00
40315;BME280;26021;45.640;11.302;2023-01-28T07:33:21;98884.09;;;0.64;100.00
40315;BME280;26021;45.640;11.302;2023-01-28T07:35:47;98883.59;;;0.59;100.00
40315;BME280;26021;45.640;11.302;2023-01-28T07:38:13;98862.25;;;0.75;100.00
40315;BME280;26021;45.640;11.302;2023-01-28T07:40:38;98854.91;;;0.67;100.00
40315;BME280;26021;45.640;11.302;2023-01-28T07:43:04;98896.50;;;0.75;100.00
40315;BME280;26021;45.640;11.302;2023-01-28T07:45:31;98879.44;;;0.68;100.00
40315;BME280;26021;45.640;11.302;2023-01-28T07:47:59;98890.69;;;0.93;100.00
40315;BME280;26021;45.640;11.302;2023-01-28T07:50:25;98904.66;;;1.29;100.00
40315;BME280;26021;45.640;11.302;2023-01-28T07:52:51;98906.41;;;1.06;100.00
40315;BME280;26021;45.640;11.302;2023-01-28T07:55:17;98899.38;;;1.29;100.00
40315;BME280;26021;45.640;11.302;2023-01-28T07:57:56;98908.38;;;1.26;100.00
40315;BME280;26021;45.640;11.302;2023-01-28T08:00:23;98911.41;;;1.55;100.00
40315;BME280;26021;45.640;11.302;2023-01-28T08:02:49;98898.78;;;1.25;100.00
40315;BME280;26021;45.640;11.302;2023-01-28T08:05:20;98870.19;;;1.66;100.00
40315;BME280;26021;45.640;11.302;2023-01-28T08:07:46;98922.94;;;1.99;100.00
40315;BME280;26021;45.640;11.302;2023-01-28T08:10:18;98929.28;;;2.30;100.00
40315;BME280;26021;45.640;11.302;2023-01-28T08:12:57;98926.63;;;2.19;100.00
40315;BME280;26021;45.640;11.302;2023-01-28T08:15:26;98927.06;;;2.46;100.00
40315;BME280;26021;45.640;11.302;2023-01-28T08:17:56;98881.50;;;2.22;100.00
40315;BME280;26021;45.640;11.302;2023-01-28T08:20:26;98936.84;;;2.67;100.00
40315;BME280;26021;45.640;11.302;2023-01-28T08:22:51;98941.63;;;2.73;100.00
40315;BME280;26021;45.640;11.302;2023-01-28T08:25:17;98895.19;;;2.70;99.33
40315;BME280;26021;45.640;11.302;2023-01-28T08:27:42;98948.63;;;3.06;98.18
40315;BME280;26021;45.640;11.302;2023-01-28T08:30:10;98944.31;;;3.05;95.39
40315;BME280;26021;45.640;11.302;2023-01-28T08:32:36;98895.00;;;2.83;93.73
40315;BME280;26021;45.640;11.302;2023-01-28T08:35:02;98954.88;;;3.05;92.23
40315;BME280;26021;45.640;11.302;2023-01-28T08:37:28;98954.06;;;2.93;93.44
40315;BME280;26021;45.640;11.302;2023-01-28T08:39:53;98956.88;;;3.12;93.18
40315;BME280;26021;45.640;11.302;2023-01-28T08:42:19;98962.03;;;3.14;93.44
40315;BME280;26021;45.640;11.302;2023-01-28T08:44:44;98963.41;;;3.29;92.60
40315;BME280;26021;45.640;11.302;2023-01-28T08:47:10;98963.53;;;3.28;91.88
40315;BME280;26021;45.640;11.302;2023-01-28T08:49:35;98922.84;;;3.19;88.46
40315;BME280;26021;45.640;11.302;2023-01-28T08:52:00;98976.56;;;3.61;89.58
40315;BME280;26021;45.640;11.302;2023-01-28T08:54:26;98970.03;;;3.65;85.29
40315;BME280;26021;45.640;11.302;2023-01-28T08:56:51;98977.38;;;3.62;84.88
40315;BME280;26021;45.640;11.302;2023-01-28T08:59:17;98981.78;;;3.31;85.20
40315;BME280;26021;45.640;11.302;2023-01-28T09:01:42;98981.31;;;3.67;82.20
40315;BME280;26021;45.640;11.302;2023-01-28T09:04:08;98985.78;;;3.67;79.22
40315;BME280;26021;45.640;11.302;2023-01-28T09:06:33;98985.66;;;3.68;79.06
40315;BME280;26021;45.640;11.302;2023-01-28T09:08:59;98993.44;;;3.49;79.06
40315;BME280;26021;45.640;11.302;2023-01-28T09:11:26;98997.72;;;3.40;79.97
40315;BME280;26021;45.640;11.302;2023-01-28T09:13:51;98918.28;;;2.89;80.69
40315;BME280;26021;45.640;11.302;2023-01-28T09:16:17;98980.22;;;3.49;81.02
40315;BME280;26021;45.640;11.302;2023-01-28T09:18:42;98999.34;;;3.73;77.85
40315;BME280;26021;45.640;11.302;2023-01-28T09:21:08;99008.09;;;3.53;77.09
40315;BME280;26021;45.640;11.302;2023-01-28T09:23:35;98930.59;;;3.32;79.50
40315;BME280;26021;45.640;11.302;2023-01-28T09:26:01;99010.25;;;3.80;77.71
40315;BME280;26021;45.640;11.302;2023-01-28T09:28:27;99005.50;;;4.04;78.20
40315;BME280;26021;45.640;11.302;2023-01-28T09:31:09;98967.00;;;3.70;75.82
40315;BME280;26021;45.640;11.302;2023-01-28T09:33:36;99017.06;;;4.03;76.84
40315;BME280;26021;45.640;11.302;2023-01-28T09:36:03;98982.28;;;3.66;76.04
40315;BME280;26021;45.640;11.302;2023-01-28T09:38:30;99013.97;;;3.98;74.54
40315;BME280;26021;45.640;11.302;2023-01-28T09:40:55;99013.63;;;4.12;76.29
40315;BME280;26021;45.640;11.302;2023-01-28T09:45:51;99022.50;;;4.32;73.45
40315;BME280;26021;45.640;11.302;2023-01-28T09:48:22;99029.50;;;4.12;73.75
40315;BME280;26021;45.640;11.302;2023-01-28T09:50:50;99024.28;;;4.32;73.56
40315;BME280;26021;45.640;11.302;2023-01-28T09:56:02;99031.16;;;4.74;72.14
40315;BME280;26021;45.640;11.302;2023-01-28T09:58:28;99017.66;;;4.87;70.26
40315;BME280;26021;45.640;11.302;2023-01-28T10:01:19;99017.09;;;4.84;70.51
40315;BME280;26021;45.640;11.302;2023-01-28T10:06:25;99017.97;;;5.13;69.45
40315;BME280;26021;45.640;11.302;2023-01-28T10:14:14;99018.00;;;5.23;70.07
40315;BME280;26021;45.640;11.302;2023-01-28T10:16:49;98987.13;;;5.12;69.40
40315;BME280;26021;45.640;11.302;2023-01-28T10:19:23;99008.94;;;5.35;68.49
40315;BME280;26021;45.640;11.302;2023-01-28T10:22:04;99013.25;;;5.46;68.21
40315;BME280;26021;45.640;11.302;2023-01-28T10:24:34;99012.16;;;5.29;68.08
40315;BME280;26021;45.640;11.302;2023-01-28T10:27:10;99009.06;;;5.33;67.38
40315;BME280;26021;45.640;11.302;2023-01-28T10:29:37;98976.09;;;5.07;67.62
40315;BME280;26021;45.640;11.302;2023-01-28T10:32:22;98982.69;;;5.41;66.61
40315;BME280;26021;45.640;11.302;2023-01-28T10:34:51;98969.66;;;5.67;68.24
40315;BME280;26021;45.640;11.302;2023-01-28T10:37:18;98993.50;;;5.87;64.56
40315;BME280;26021;45.640;11.302;2023-01-28T10:39:44;98985.16;;;5.62;65.95
40315;BME280;26021;45.640;11.302;2023-01-28T10:42:22;98889.75;;;4.95;65.26
40315;BME280;26021;45.640;11.302;2023-01-28T10:44:51;98961.88;;;5.47;65.70
40315;BME280;26021;45.640;11.302;2023-01-28T10:47:32;98988.53;;;5.45;64.93
40315;BME280;26021;45.640;11.302;2023-01-28T10:50:00;98986.16;;;5.61;63.99
40315;BME280;26021;45.640;11.302;2023-01-28T10:52:27;98982.41;;;5.35;65.10
40315;BME280;26021;45.640;11.302;2023-01-28T10:55:03;98980.69;;;5.63;66.14
40315;BME280;26021;45.640;11.302;2023-01-28T10:57:32;98942.72;;;5.62;66.58
40315;BME280;26021;45.640;11.302;2023-01-28T11:00:27;98978.38;;;6.16;65.84
40315;BME280;26021;45.640;11.302;2023-01-28T11:02:55;98971.19;;;6.26;65.23
40315;BME280;26021;45.640;11.302;2023-01-28T11:05:27;98972.69;;;6.01;62.47
40315;BME280;26021;45.640;11.302;2023-01-28T11:08:12;98909.97;;;5.91;63.29
40315;BME280;26021;45.640;11.302;2023-01-28T11:10:39;98950.50;;;6.30;60.74
40315;BME280;26021;45.640;11.302;2023-01-28T11:13:24;98938.88;;;5.94;61.74
40315;BME280;26021;45.640;11.302;2023-01-28T11:16:13;98969.69;;;6.51;62.15
40315;BME280;26021;45.640;11.302;2023-01-28T11:18:49;98832.63;;;5.76;58.23
40315;BME280;26021;45.640;11.302;2023-01-28T11:21:18;98889.94;;;6.33;53.04
40315;BME280;26021;45.640;11.302;2023-01-28T11:23:53;98954.19;;;6.74;51.08
40315;BME280;26021;45.640;11.302;2023-01-28T11:26:25;98908.09;;;6.38;53.36
40315;BME280;26021;45.640;11.302;2023-01-28T11:28:52;98937.56;;;6.72;51.54
40315;BME280;26021;45.640;11.302;2023-01-28T11:31:19;98906.88;;;6.50;49.26
40315;BME280;26021;45.640;11.302;2023-01-28T11:33:52;98944.34;;;6.57;50.57
40315;BME280;26021;45.640;11.302;2023-01-28T11:36:29;98800.16;;;5.92;51.14
40315;BME280;26021;45.640;11.302;2023-01-28T11:38:56;98940.22;;;6.90;50.36
40315;BME280;26021;45.640;11.302;2023-01-28T11:41:27;98931.56;;;6.88;51.19
40315;BME280;26021;45.640;11.302;2023-01-28T11:43:53;98913.19;;;6.49;51.02
40315;BME280;26021;45.640;11.302;2023-01-28T12:05:45;98907.53;;;7.15;48.39
40315;BME280;26021;45.640;11.302;2023-01-28T12:08:20;98835.59;;;6.63;49.06
40315;BME280;26021;45.640;11.302;2023-01-28T12:13:32;98845.25;;;6.64;48.33
40315;BME280;26021;45.640;11.302;2023-01-28T12:22:49;98900.75;;;7.21;47.69
40315;BME280;26021;45.640;11.302;2023-01-28T12:27:56;98887.56;;;7.11;48.32
40315;BME280;26021;45.640;11.302;2023-01-28T12:30:45;98887.41;;;7.13;49.36
40315;BME280;26021;45.640;11.302;2023-01-28T12:39:07;98884.91;;;7.37;47.74
40315;BME280;26021;45.640;11.302;2023-01-28T12:41:40;98891.03;;;7.29;49.25
40315;BME280;26021;45.640;11.302;2023-01-28T12:44:19;98884.81;;;7.21;48.48
40315;BME280;26021;45.640;11.302;2023-01-28T12:46:50;98889.38;;;7.11;49.81
40315;BME280;26021;45.640;11.302;2023-01-28T12:49:43;98872.22;;;7.05;50.32
40315;BME280;26021;45.640;11.302;2023-01-28T12:52:27;98886.38;;;7.49;48.79
40315;BME280;26021;45.640;11.302;2023-01-28T12:57:37;98897.69;;;7.33;50.26
40315;BME280;26021;45.640;11.302;2023-01-28T13:00:55;98888.34;;;7.47;51.24
40315;BME280;26021;45.640;11.302;2023-01-28T13:03:40;98841.75;;;6.99;50.64
40315;BME280;26021;45.640;11.302;2023-01-28T13:06:14;98756.53;;;6.22;50.89
40315;BME280;26021;45.640;11.302;2023-01-28T13:08:43;98805.69;;;6.44;49.23
40315;BME280;26021;45.640;11.302;2023-01-28T13:11:13;98832.13;;;6.63;50.26
40315;BME280;26021;45.640;11.302;2023-01-28T13:13:41;98892.81;;;7.03;48.89
40315;BME280;26021;45.640;11.302;2023-01-28T13:16:09;98822.84;;;6.31;48.44
40315;BME280;26021;45.640;11.302;2023-01-28T13:23:38;98900.81;;;7.29;49.35
40315;BME280;26021;45.640;11.302;2023-01-28T13:26:29;98897.78;;;7.24;49.38
40315;BME280;26021;45.640;11.302;2023-01-28T13:29:08;98903.13;;;7.24;50.66
40315;BME280;26021;45.640;11.302;2023-01-28T13:31:44;98863.69;;;7.19;49.42
40315;BME280;26021;45.640;11.302;2023-01-28T13:34:37;98910.84;;;7.53;49.28
40315;BME280;26021;45.640;11.302;2023-01-28T13:42:37;98904.63;;;7.70;49.27
40315;BME280;26021;45.640;11.302;2023-01-28T13:47:44;98901.09;;;7.61;47.47
40315;BME280;26021;45.640;11.302;2023-01-28T13:50:17;98924.47;;;7.32;47.45
40315;BME280;26021;45.640;11.302;2023-01-28T13:52:49;98909.69;;;6.94;49.32
40315;BME280;26021;45.640;11.302;2023-01-28T13:55:25;98915.53;;;6.80;50.49
40315;BME280;26021;45.640;11.302;2023-01-28T14:17:20;98941.19;;;6.71;49.40
40315;BME280;26021;45.640;11.302;2023-01-28T14:19:50;98882.38;;;6.11;50.64
40315;BME280;26021;45.640;11.302;2023-01-28T14:22:18;98929.66;;;6.53;51.35
40315;BME280;26021;45.640;11.302;2023-01-28T14:24:45;98852.47;;;6.09;50.69
40315;BME280;26021;45.640;11.302;2023-01-28T14:27:19;98939.78;;;6.67;51.08
40315;BME280;26021;45.640;11.302;2023-01-28T14:30:03;98943.69;;;6.73;51.25
40315;BME280;26021;45.640;11.302;2023-01-28T14:32:32;98947.28;;;6.81;51.64
40315;BME280;26021;45.640;11.302;2023-01-28T14:35:00;98927.25;;;6.59;49.80
40315;BME280;26021;45.640;11.302;2023-01-28T14:37:30;98871.56;;;6.22;50.23
40315;BME280;26021;45.640;11.302;2023-01-28T14:39:58;98960.50;;;6.73;50.09
40315;BME280;26021;45.640;11.302;2023-01-28T14:42:29;98900.63;;;6.24;50.20
40315;BME280;26021;45.640;11.302;2023-01-28T14:47:31;98965.00;;;6.63;52.29
40315;BME280;26021;45.640;11.302;2023-01-28T14:53:18;98974.25;;;6.31;53.98
40315;BME280;26021;45.640;11.302;2023-01-28T14:55:47;98946.16;;;5.92;54.84
40315;BME280;26021;45.640;11.302;2023-01-28T14:58:25;98919.94;;;5.69;56.75
40315;BME280;26021;45.640;11.302;2023-01-28T15:00:57;98929.13;;;5.75;56.93